Time;durP1;ratioP1;P1;durP2;ratioP2;P2;SDS_P1;SDS_P2;PMS_P1;PMS_P2;Temp;Humidity;BMP_temperature;BMP_pressure;BME280_temperature;BME280_humidity;BME280_pressure;Samples;Min_cycle;Max_cycle;Signal;HPM_P1;HPM_P2
2022/04/12 00:00:00;;;;;;;12.27;11.02;;;10.80;60.60;;;;;;5113296;28;20287;-55
2022/04/12 00:02:28;;;;;;;12.38;11.25;;;10.80;60.90;;;;;;5113065;28;20327;-55
2022/04/12 00:04:55;;;;;;;13.00;11.70;;;10.80;60.70;;;;;;5113223;28;20203;-56
2022/04/12 00:07:22;;;;;;;11.98;10.82;;;10.80;60.50;;;;;;5113309;28;20228;-56
2022/04/12 00:09:49;;;;;;;11.27;10.27;;;10.80;60.30;;;;;;5113215;28;20259;-56
2022/04/12 00:12:18;;;;;;;11.65;10.65;;;10.80;60.40;;;;;;5113120;28;20287;-56
2022/04/12 00:14:44;;;;;;;12.35;11.30;;;10.80;60.40;;;;;;5112216;28;20238;-56
2022/04/12 00:19:56;;;;;;;13.07;11.75;;;10.70;60.70;;;;;;5113004;28;20308;-55
2022/04/12 00:22:22;;;;;;;12.45;11.27;;;10.60;60.70;;;;;;5113028;28;20243;-56
2022/04/12 00:24:49;;;;;;;12.50;11.30;;;10.60;60.50;;;;;;5113174;28;20286;-56
2022/04/12 00:27:17;;;;;;;12.88;11.68;;;10.50;60.60;;;;;;5113028;28;20286;-55
2022/04/12 00:29:44;;;;;;;11.93;10.90;;;10.50;60.70;;;;;;5112218;28;20199;-56
2022/04/12 00:32:11;;;;;;;11.68;10.60;;;10.50;60.70;;;;;;5113156;28;20204;-55
2022/04/12 00:34:38;;;;;;;11.70;10.60;;;10.50;61.80;;;;;;5112889;28;20196;-56
2022/04/12 00:37:05;;;;;;;12.45;11.32;;;10.40;62.50;;;;;;5113068;28;20286;-56
2022/04/12 00:39:34;;;;;;;12.32;11.32;;;10.40;61.70;;;;;;5113043;28;20212;-55
2022/04/12 00:42:08;;;;;;;12.38;11.18;;;10.40;62.10;;;;;;5115097;28;20632;-56
2022/04/12 00:44:36;;;;;;;11.90;10.90;;;10.40;61.60;;;;;;5115836;28;20205;-56
2022/04/12 00:47:03;;;;;;;12.07;10.98;;;10.40;61.40;;;;;;5117066;28;20298;-55
2022/04/12 00:49:30;;;;;;;11.90;10.95;;;10.40;61.50;;;;;;5116828;28;20203;-56
2022/04/12 00:51:58;;;;;;;12.45;11.45;;;10.50;61.90;;;;;;5116830;28;20756;-55
2022/04/12 00:54:25;;;;;;;12.73;11.65;;;10.40;62.10;;;;;;5116694;28;20286;-55
2022/04/12 00:56:53;;;;;;;13.00;11.75;;;10.40;61.60;;;;;;5116927;28;20208;-56
2022/04/12 00:59:20;;;;;;;12.73;11.43;;;10.40;61.70;;;;;;5115561;28;20619;-56
2022/04/12 01:01:48;;;;;;;11.77;10.77;;;10.30;62.00;;;;;;5116619;28;20709;-56
2022/04/12 01:04:15;;;;;;;13.40;11.35;;;10.40;61.50;;;;;;5116502;28;20300;-56
2022/04/12 01:06:43;;;;;;;12.38;11.18;;;10.40;61.20;;;;;;5116662;28;20206;-56
2022/04/12 01:09:09;;;;;;;11.00;10.02;;;10.40;61.30;;;;;;5116499;28;20221;-56
2022/04/12 01:11:39;;;;;;;12.63;11.50;;;10.40;62.00;;;;;;5116467;28;20715;-56
2022/04/12 01:14:06;;;;;;;11.40;10.50;;;10.40;62.00;;;;;;5115289;28;20208;-56
2022/04/12 01:16:34;;;;;;;11.38;10.48;;;10.20;62.40;;;;;;5116362;28;20521;-56
2022/04/12 01:19:02;;;;;;;11.43;10.45;;;10.10;62.60;;;;;;5116227;28;20290;-56
2022/04/12 01:21:36;;;;;;;12.40;11.20;;;10.00;63.10;;;;;;5116164;28;20211;-56
2022/04/12 01:24:06;;;;;;;12.20;11.20;;;9.80;62.90;;;;;;5116340;28;20203;-56
2022/04/12 01:26:33;;;;;;;11.50;10.50;;;9.80;63.30;;;;;;5116273;28;20294;-55
2022/04/12 01:29:00;;;;;;;11.13;10.18;;;9.70;63.80;;;;;;5114923;28;20215;-56
2022/04/12 01:31:28;;;;;;;11.60;10.50;;;9.60;63.80;;;;;;5116162;28;20200;-56
2022/04/12 01:33:55;;;;;;;11.82;10.93;;;9.60;64.00;;;;;;5115911;28;20210;-56
2022/04/12 01:36:22;;;;;;;12.30;10.88;;;9.70;63.80;;;;;;5115956;28;20200;-56
2022/04/12 01:38:49;;;;;;;12.18;11.13;;;9.70;63.60;;;;;;5115986;28;20638;-56
2022/04/12 01:41:17;;;;;;;12.57;11.38;;;9.70;63.60;;;;;;5116042;28;20295;-56
2022/04/12 01:43:44;;;;;;;11.80;10.70;;;9.70;63.40;;;;;;5114739;28;20237;-56
2022/04/12 01:46:11;;;;;;;13.30;12.10;;;9.70;63.10;;;;;;5116080;28;20249;-56
2022/04/12 01:48:38;;;;;;;11.82;10.73;;;9.80;63.20;;;;;;5115656;28;20618;-56
2022/04/12 01:51:05;;;;;;;12.70;11.50;;;9.80;62.90;;;;;;5115781;28;20207;-56
2022/04/12 01:53:31;;;;;;;12.15;11.05;;;9.80;63.10;;;;;;5115380;28;20203;-56
2022/04/12 01:55:58;;;;;;;12.15;11.05;;;9.80;63.70;;;;;;5115795;28;20203;-56
2022/04/12 01:58:27;;;;;;;12.40;11.20;;;9.70;64.00;;;;;;5114627;28;20227;-56
2022/04/12 02:00:53;;;;;;;12.10;11.10;;;9.70;63.70;;;;;;5115741;28;20206;-56
2022/04/12 02:03:21;;;;;;;12.63;11.52;;;9.60;63.70;;;;;;5115354;28;20588;-56
2022/04/12 02:05:48;;;;;;;12.13;10.98;;;9.60;63.90;;;;;;5115619;28;20206;-56
2022/04/12 02:08:14;;;;;;;12.55;11.45;;;9.60;63.60;;;;;;5115710;28;20226;-56
2022/04/12 02:10:41;;;;;;;11.50;10.50;;;9.60;63.60;;;;;;5115510;28;20251;-56
2022/04/12 02:13:08;;;;;;;11.93;10.95;;;9.60;63.50;;;;;;5114092;28;20247;-56
2022/04/12 02:15:36;;;;;;;10.60;9.75;;;9.60;64.10;;;;;;5115520;28;20208;-56
2022/04/12 02:18:03;;;;;;;11.60;10.55;;;9.50;64.70;;;;;;5115267;28;20447;-56
2022/04/12 02:20:30;;;;;;;12.43;11.27;;;9.50;65.20;;;;;;5115119;28;20228;-56
2022/04/12 02:22:57;;;;;;;12.20;11.10;;;9.40;65.20;;;;;;5115313;28;20228;-56
2022/04/12 02:25:24;;;;;;;11.85;10.70;;;9.40;65.20;;;;;;5115326;28;20235;-56
2022/04/12 02:27:51;;;;;;;11.32;10.32;;;9.30;65.30;;;;;;5113834;28;20203;-56
2022/04/12 02:30:18;;;;;;;12.90;11.90;;;9.20;65.60;;;;;;5115094;28;20203;-56
2022/04/12 02:32:46;;;;;;;12.75;11.65;;;9.20;65.70;;;;;;5115162;28;20204;-56
2022/04/12 02:35:13;;;;;;;12.13;11.02;;;9.20;65.50;;;;;;5115025;28;20234;-56
2022/04/12 02:37:40;;;;;;;11.95;10.25;;;9.20;65.40;;;;;;5114952;28;20217;-56
2022/04/12 02:40:08;;;;;;;12.80;11.60;;;9.10;66.10;;;;;;5114995;28;20203;-56
2022/04/12 02:42:34;;;;;;;12.00;11.10;;;9.00;66.50;;;;;;5113573;28;20708;-56
2022/04/12 02:45:01;;;;;;;10.98;10.07;;;9.10;65.90;;;;;;5114766;28;20235;-56
2022/04/12 02:47:28;;;;;;;12.23;11.23;;;9.10;65.40;;;;;;5114814;28;20211;-56
2022/04/12 02:49:57;;;;;;;12.50;11.48;;;9.20;65.20;;;;;;5114587;28;20294;-56
2022/04/12 02:52:24;;;;;;;12.82;11.82;;;9.20;65.40;;;;;;5114720;28;20207;-56
2022/04/12 02:54:51;;;;;;;12.70;11.65;;;9.10;65.30;;;;;;5114697;28;20211;-56
2022/04/12 02:57:18;;;;;;;12.50;11.35;;;9.10;65.60;;;;;;5114603;28;20233;-56
2022/04/12 02:59:45;;;;;;;11.65;10.63;;;9.10;65.40;;;;;;5113661;28;20203;-56
2022/04/12 03:02:11;;;;;;;10.95;10.02;;;9.10;65.40;;;;;;5114387;28;20294;-56
2022/04/12 03:04:40;;;;;;;12.30;11.20;;;9.10;65.60;;;;;;5113389;28;20203;-56
2022/04/12 03:07:08;;;;;;;13.57;12.15;;;9.00;66.30;;;;;;5114403;28;20688;-55
2022/04/12 03:09:35;;;;;;;13.85;12.73;;;8.90;66.40;;;;;;5114389;28;20219;-56
2022/04/12 03:12:04;;;;;;;12.88;11.80;;;8.90;66.50;;;;;;5114418;28;20211;-56
2022/04/12 03:14:31;;;;;;;11.38;10.23;;;8.80;66.60;;;;;;5112839;28;20827;-55
2022/04/12 03:16:58;;;;;;;12.05;10.85;;;8.80;66.50;;;;;;5114236;28;20264;-55
2022/04/12 03:19:25;;;;;;;10.55;9.60;;;8.70;66.90;;;;;;5113922;28;20716;-56
2022/04/12 03:21:52;;;;;;;13.15;12.00;;;8.70;67.00;;;;;;5114160;28;20204;-55
2022/04/12 03:24:22;;;;;;;12.45;11.23;;;8.60;67.20;;;;;;5114059;28;20231;-56
2022/04/12 03:26:49;;;;;;;12.60;11.40;;;8.60;67.50;;;;;;5113764;28;20230;-56
2022/04/12 03:29:16;;;;;;;10.63;9.73;;;8.60;67.50;;;;;;5112748;28;20196;-56
2022/04/12 03:31:43;;;;;;;12.60;11.60;;;8.70;67.10;;;;;;5113998;28;20221;-55
2022/04/12 03:34:10;;;;;;;12.27;11.13;;;8.70;67.10;;;;;;5113760;28;20541;-56
2022/04/12 03:36:38;;;;;;;12.60;11.23;;;8.80;66.90;;;;;;5113926;28;20210;-56
2022/04/12 03:39:05;;;;;;;10.75;9.70;;;8.80;66.60;;;;;;5113753;28;20290;-56
2022/04/12 03:41:34;;;;;;;11.95;10.80;;;8.80;66.90;;;;;;5113808;28;20208;-56
2022/04/12 03:44:00;;;;;;;11.93;10.88;;;8.80;66.80;;;;;;5112348;28;20233;-56
2022/04/12 03:46:27;;;;;;;12.02;10.82;;;8.80;66.70;;;;;;5113779;28;20195;-56
2022/04/12 03:48:54;;;;;;;12.52;11.40;;;8.80;66.90;;;;;;5113542;28;20226;-56
2022/04/12 03:51:21;;;;;;;12.13;11.18;;;8.80;66.80;;;;;;5113543;28;20273;-56
2022/04/12 03:53:49;;;;;;;13.77;12.52;;;8.80;66.70;;;;;;5113404;28;20677;-56
2022/04/12 03:56:16;;;;;;;14.05;12.75;;;8.80;66.90;;;;;;5113589;28;20260;-56
2022/04/12 03:58:45;;;;;;;12.27;11.20;;;8.80;66.70;;;;;;5112245;28;20657;-56
2022/04/12 04:01:12;;;;;;;14.02;12.82;;;8.70;67.50;;;;;;5113530;28;20241;-56
2022/04/12 04:03:39;;;;;;;13.15;12.05;;;8.70;67.60;;;;;;5113190;28;20239;-56
2022/04/12 04:06:06;;;;;;;12.88;11.60;;;8.70;67.40;;;;;;5113505;28;20299;-56
2022/04/12 04:08:33;;;;;;;12.95;11.85;;;8.70;67.50;;;;;;5113299;28;20219;-56
2022/04/12 04:11:00;;;;;;;13.07;11.98;;;8.70;67.90;;;;;;5113391;28;20292;-56
2022/04/12 04:13:35;;;;;;;11.75;10.73;;;8.60;67.90;;;;;;5112086;28;20249;-56
2022/04/12 04:16:04;;;;;;;12.25;11.20;;;8.70;67.60;;;;;;5113228;28;20285;-55
2022/04/12 04:18:31;;;;;;;12.65;11.60;;;8.80;67.40;;;;;;5113105;28;20203;-56
2022/04/12 04:20:58;;;;;;;12.43;11.38;;;8.80;67.20;;;;;;5112986;28;20241;-55
2022/04/12 04:23:25;;;;;;;13.02;11.93;;;8.70;67.60;;;;;;5113183;28;20227;-56
2022/04/12 04:25:52;;;;;;;12.35;11.25;;;8.60;67.90;;;;;;5113157;28;20632;-56
2022/04/12 04:28:21;;;;;;;10.10;9.20;;;8.50;68.00;;;;;;5111843;28;20242;-56
2022/04/12 04:30:49;;;;;;;14.90;11.90;;;8.50;67.90;;;;;;5113123;28;20649;-56
2022/04/12 04:33:18;;;;;;;13.25;12.15;;;8.50;68.00;;;;;;5113138;28;20209;-56
2022/04/12 04:35:45;;;;;;;11.90;10.80;;;8.30;68.80;;;;;;5112719;28;20204;-56
2022/04/12 04:38:12;;;;;;;13.80;12.35;;;8.30;68.60;;;;;;5113057;28;20234;-56
2022/04/12 04:40:39;;;;;;;13.95;12.75;;;8.30;68.90;;;;;;5112970;28;20213;-56
2022/04/12 04:43:07;;;;;;;14.13;12.82;;;8.30;68.90;;;;;;5111540;28;20227;-55
2022/04/12 04:45:34;;;;;;;14.98;13.48;;;8.30;68.80;;;;;;5112820;28;20673;-56
2022/04/12 04:48:03;;;;;;;14.80;13.40;;;8.20;68.90;;;;;;5112893;28;20239;-56
2022/04/12 04:50:33;;;;;;;12.50;11.40;;;8.20;69.30;;;;;;5112781;28;20247;-56
2022/04/12 04:53:02;;;;;;;13.35;12.20;;;8.00;69.50;;;;;;5112842;28;20203;-55
2022/04/12 04:55:29;;;;;;;13.38;12.38;;;7.90;70.40;;;;;;5112777;28;20206;-56
2022/04/12 04:57:57;;;;;;;14.18;12.88;;;7.80;70.60;;;;;;5111465;28;20210;-56
2022/04/12 05:00:26;;;;;;;13.25;11.85;;;7.80;70.60;;;;;;5112844;28;20211;-55
2022/04/12 05:02:54;;;;;;;14.85;13.48;;;7.70;71.00;;;;;;5112750;28;20207;-56
2022/04/12 05:05:22;;;;;;;13.55;12.30;;;7.70;71.10;;;;;;5112669;28;20206;-56
2022/04/12 05:07:52;;;;;;;13.45;12.25;;;7.60;71.70;;;;;;5112739;28;20322;-55
2022/04/12 05:10:20;;;;;;;14.52;12.98;;;7.60;71.90;;;;;;5112747;28;20658;-55
2022/04/12 05:12:48;;;;;;;12.18;11.07;;;7.50;71.90;;;;;;5111372;28;20668;-56
2022/04/12 05:15:16;;;;;;;14.30;13.00;;;7.50;72.10;;;;;;5112573;28;20257;-56
2022/04/12 05:17:49;;;;;;;13.05;11.88;;;7.60;71.30;;;;;;5112628;28;20200;-56
2022/04/12 05:20:16;;;;;;;14.40;13.30;;;7.70;71.40;;;;;;5112375;28;20228;-55
2022/04/12 05:22:42;;;;;;;11.18;10.13;;;7.80;71.00;;;;;;5112653;28;20626;-56
2022/04/12 05:25:11;;;;;;;12.18;11.10;;;7.80;70.90;;;;;;5112534;28;20223;-56
2022/04/12 05:27:38;;;;;;;13.68;12.45;;;7.80;71.10;;;;;;5112702;28;20282;-55
2022/04/12 05:30:07;;;;;;;14.90;13.02;;;7.80;71.30;;;;;;5116235;28;20647;-56
2022/04/12 05:32:34;;;;;;;15.50;14.23;;;7.70;71.20;;;;;;5116354;28;20614;-55
2022/04/12 05:35:01;;;;;;;13.27;12.27;;;7.80;70.90;;;;;;5115955;28;20221;-56
2022/04/12 05:37:28;;;;;;;13.93;12.73;;;7.90;70.80;;;;;;5116097;28;20294;-55
2022/04/12 05:39:56;;;;;;;12.88;11.27;;;7.90;70.60;;;;;;5115967;28;20202;-56
2022/04/12 05:42:25;;;;;;;14.30;13.18;;;8.00;70.80;;;;;;5115174;28;20210;-56
2022/04/12 05:44:52;;;;;;;17.00;15.35;;;8.00;70.70;;;;;;5115907;28;20516;-56
2022/04/12 05:47:19;;;;;;;16.58;14.95;;;8.10;70.60;;;;;;5115893;28;20206;-56
2022/04/12 05:49:45;;;;;;;12.45;11.45;;;8.20;70.10;;;;;;5115623;28;20203;-56
2022/04/12 05:52:12;;;;;;;14.95;13.65;;;8.30;69.90;;;;;;5115770;28;20242;-56
2022/04/12 05:54:39;;;;;;;15.02;13.70;;;8.30;69.70;;;;;;5115696;28;20728;-56
2022/04/12 05:57:06;;;;;;;14.75;13.45;;;8.40;69.60;;;;;;5115908;28;20302;-56
2022/04/12 05:59:35;;;;;;;14.90;13.40;;;8.40;69.50;;;;;;5114559;28;20200;-56
2022/04/12 06:02:01;;;;;;;12.95;11.57;;;8.40;69.50;;;;;;5115618;28;20214;-56
2022/04/12 06:04:28;;;;;;;14.60;13.32;;;8.30;69.80;;;;;;5115294;28;20274;-56
2022/04/12 06:06:55;;;;;;;15.02;13.80;;;8.30;69.80;;;;;;5115590;28;20602;-56
2022/04/12 06:09:22;;;;;;;14.80;13.50;;;8.40;70.10;;;;;;5115358;28;20234;-56
2022/04/12 06:11:49;;;;;;;13.02;11.88;;;8.40;69.90;;;;;;5115444;28;20227;-56
2022/04/12 06:14:15;;;;;;;13.70;12.38;;;8.40;70.10;;;;;;5114053;28;20195;-56
2022/04/12 06:16:44;;;;;;;14.40;13.18;;;8.50;69.80;;;;;;5115185;28;20209;-56
2022/04/12 06:19:11;;;;;;;13.18;12.18;;;8.60;70.10;;;;;;5115171;28;20261;-56
2022/04/12 06:21:37;;;;;;;14.32;12.93;;;8.70;69.70;;;;;;5115210;28;20234;-56
2022/04/12 06:24:05;;;;;;;14.88;13.48;;;8.70;69.60;;;;;;5115172;28;20231;-56
2022/04/12 06:26:32;;;;;;;14.57;13.20;;;8.80;69.30;;;;;;5115162;28;20203;-56
2022/04/12 06:28:58;;;;;;;11.85;10.65;;;8.90;69.00;;;;;;5113720;28;20207;-56
2022/04/12 06:31:25;;;;;;;13.95;12.85;;;9.00;68.80;;;;;;5115152;28;20206;-56
2022/04/12 06:33:53;;;;;;;14.52;13.27;;;9.10;68.70;;;;;;5115058;28;20776;-56
2022/04/12 06:36:20;;;;;;;12.07;10.90;;;9.20;68.30;;;;;;5115053;28;20231;-56
2022/04/12 06:38:47;;;;;;;14.10;13.00;;;9.30;68.20;;;;;;5114801;28;20288;-55
2022/04/12 06:41:14;;;;;;;14.50;13.23;;;9.30;68.10;;;;;;5114820;28;20231;-56
2022/04/12 06:43:41;;;;;;;12.85;11.55;;;9.40;67.90;;;;;;5113437;28;20262;-55
2022/04/12 06:46:08;;;;;;;13.50;12.32;;;9.40;68.10;;;;;;5114829;28;20210;-55
2022/04/12 06:48:34;;;;;;;14.73;13.43;;;9.50;67.90;;;;;;5114727;28;20230;-55
2022/04/12 06:51:03;;;;;;;13.65;12.30;;;9.60;67.50;;;;;;5114315;28;20680;-56
2022/04/12 06:53:30;;;;;;;14.80;13.55;;;9.70;67.50;;;;;;5114633;28;20196;-56
2022/04/12 06:55:56;;;;;;;12.82;11.63;;;9.70;66.70;;;;;;5114676;28;20203;-56
2022/04/12 06:58:23;;;;;;;14.15;12.95;;;9.80;66.70;;;;;;5113145;28;20242;-55
2022/04/12 07:00:50;;;;;;;12.07;10.88;;;9.80;66.50;;;;;;5114618;28;20214;-55
2022/04/12 07:03:17;;;;;;;14.65;13.40;;;9.80;66.60;;;;;;5114407;28;20750;-56
2022/04/12 07:05:45;;;;;;;14.20;13.05;;;9.80;66.10;;;;;;5114052;28;20231;-55
2022/04/12 07:08:13;;;;;;;14.75;13.57;;;9.80;66.50;;;;;;5114249;28;20219;-56
2022/04/12 07:10:42;;;;;;;14.10;13.10;;;9.90;66.40;;;;;;5114283;28;20302;-55
2022/04/12 07:13:09;;;;;;;13.82;12.70;;;9.90;66.60;;;;;;5112857;28;20252;-55
2022/04/12 07:15:35;;;;;;;13.55;12.43;;;10.00;66.00;;;;;;5114102;28;20290;-55
2022/04/12 07:18:02;;;;;;;14.90;13.70;;;10.00;66.30;;;;;;5114044;28;20226;-55
2022/04/12 07:20:29;;;;;;;16.30;13.30;;;10.00;66.50;;;;;;5113634;28;20241;-55
2022/04/12 07:22:56;;;;;;;13.82;12.45;;;10.10;66.50;;;;;;5113902;28;20686;-55
2022/04/12 07:25:24;;;;;;;15.70;13.20;;;10.10;65.90;;;;;;5113868;28;20233;-55
2022/04/12 07:27:51;;;;;;;14.20;13.00;;;10.20;65.70;;;;;;5112483;28;20235;-55
2022/04/12 07:30:18;;;;;;;14.18;12.88;;;10.20;65.40;;;;;;5113807;28;20206;-55
2022/04/12 07:32:45;;;;;;;12.70;11.38;;;10.30;65.40;;;;;;5113813;28;20206;-56
2022/04/12 07:35:12;;;;;;;12.80;11.52;;;10.40;65.80;;;;;;5113659;28;20670;-56
2022/04/12 07:37:42;;;;;;;11.85;10.85;;;10.40;64.60;;;;;;5113777;28;20201;-55
2022/04/12 07:40:10;;;;;;;12.65;11.63;;;10.50;64.50;;;;;;5113675;28;20200;-56
2022/04/12 07:42:38;;;;;;;13.75;12.75;;;10.60;64.50;;;;;;5112380;28;20196;-56
2022/04/12 07:45:06;;;;;;;15.45;14.27;;;10.60;64.60;;;;;;5113626;28;20231;-57
2022/04/12 07:47:35;;;;;;;13.07;12.05;;;10.70;64.80;;;;;;5113532;28;20203;-56
2022/04/12 07:50:02;;;;;;;11.98;10.77;;;10.80;64.80;;;;;;5112957;28;20658;-56
2022/04/12 07:52:29;;;;;;;14.30;13.00;;;10.80;64.70;;;;;;5113501;28;20208;-56
2022/04/12 07:54:56;;;;;;;13.48;12.40;;;10.90;64.40;;;;;;5113467;28;20294;-56
2022/04/12 07:57:23;;;;;;;15.25;13.98;;;11.00;63.70;;;;;;5113021;28;20542;-56
2022/04/12 07:59:51;;;;;;;15.35;13.95;;;11.10;64.10;;;;;;5113032;28;20257;-56
2022/04/12 08:02:18;;;;;;;15.05;13.80;;;11.20;64.50;;;;;;5113323;28;20195;-56
2022/04/12 08:04:44;;;;;;;14.60;13.32;;;11.30;65.20;;;;;;5113280;28;20306;-56
2022/04/12 08:07:11;;;;;;;15.00;13.68;;;11.50;65.60;;;;;;5113306;28;20729;-56
2022/04/12 08:09:38;;;;;;;14.85;13.73;;;11.70;63.60;;;;;;5113421;28;20199;-56
2022/04/12 08:12:05;;;;;;;14.52;13.43;;;11.80;63.70;;;;;;5113339;28;20617;-56
2022/04/12 08:14:32;;;;;;;14.10;13.05;;;11.90;63.10;;;;;;5111850;28;20206;-56
2022/04/12 08:17:00;;;;;;;15.10;13.70;;;12.10;62.50;;;;;;5113275;28;20260;-56
2022/04/12 08:19:27;;;;;;;12.43;11.48;;;12.20;61.60;;;;;;5112945;28;20262;-57
2022/04/12 08:21:54;;;;;;;12.80;11.32;;;12.30;61.20;;;;;;5113208;28;20286;-56
2022/04/12 08:24:21;;;;;;;14.50;13.20;;;12.60;62.00;;;;;;5113048;28;20231;-56
2022/04/12 08:26:48;;;;;;;13.95;12.75;;;12.80;59.90;;;;;;5113239;28;20199;-56
2022/04/12 08:29:15;;;;;;;13.52;12.50;;;12.90;59.90;;;;;;5111617;28;20218;-56
2022/04/12 08:31:42;;;;;;;12.27;11.07;;;13.10;60.80;;;;;;5113161;28;20290;-56
2022/04/12 08:34:10;;;;;;;13.70;12.48;;;13.30;59.50;;;;;;5112918;28;20213;-56
2022/04/12 08:36:37;;;;;;;14.50;13.50;;;13.50;59.00;;;;;;5113326;28;20287;-56
2022/04/12 08:39:04;;;;;;;13.43;12.35;;;13.60;58.70;;;;;;5113123;28;20296;-57
2022/04/12 08:41:35;;;;;;;13.48;12.43;;;13.70;58.30;;;;;;5112998;28;20302;-57
2022/04/12 08:44:01;;;;;;;13.90;12.80;;;13.90;57.30;;;;;;5111632;28;20561;-56
2022/04/12 08:46:29;;;;;;;12.68;11.82;;;14.00;56.40;;;;;;5112989;28;20666;-57
2022/04/12 08:48:58;;;;;;;11.73;10.93;;;14.00;55.90;;;;;;5112986;28;20198;-57
2022/04/12 08:51:28;;;;;;;12.20;11.07;;;14.10;55.90;;;;;;5112777;28;20290;-57
2022/04/12 08:53:56;;;;;;;12.38;11.30;;;14.30;54.20;;;;;;5112931;28;20203;-57
2022/04/12 08:56:23;;;;;;;11.93;10.98;;;14.40;54.30;;;;;;5112746;28;20280;-57
2022/04/12 08:58:50;;;;;;;13.33;12.33;;;14.50;53.40;;;;;;5111440;28;20198;-57
2022/04/12 09:01:17;;;;;;;12.37;11.57;;;14.60;53.60;;;;;;5112726;28;20449;-56
2022/04/12 09:03:46;;;;;;;11.40;10.60;;;14.80;52.60;;;;;;5116283;28;20480;-56
2022/04/12 09:06:14;;;;;;;12.63;11.63;;;14.90;52.30;;;;;;5116402;28;20512;-57
2022/04/12 09:08:42;;;;;;;13.13;12.10;;;15.00;51.90;;;;;;5116722;28;20532;-60
2022/04/12 09:11:09;;;;;;;12.43;11.63;;;15.10;52.70;;;;;;5116425;28;20480;-56
2022/04/12 09:13:36;;;;;;;12.00;11.20;;;15.20;52.70;;;;;;5115546;28;20452;-56
2022/04/12 09:16:08;;;;;;;13.53;12.47;;;15.30;52.50;;;;;;5116563;28;20540;-57
2022/04/12 09:18:38;;;;;;;11.63;10.70;;;15.40;52.40;;;;;;5116495;28;20448;-56
2022/04/12 09:21:16;;;;;;;11.87;11.07;;;15.50;52.70;;;;;;5116004;28;20497;-56
2022/04/12 09:23:46;;;;;;;12.87;11.90;;;15.50;51.30;;;;;;5116355;28;21040;-58
2022/04/12 09:26:22;;;;;;;11.03;10.23;;;15.50;52.50;;;;;;5116279;28;20488;-56
2022/04/12 09:28:49;;;;;;;12.60;11.80;;;15.60;52.80;;;;;;5115068;28;20469;-54
2022/04/12 09:31:17;;;;;;;11.90;11.20;;;15.80;53.00;;;;;;5116324;28;20449;-58
2022/04/12 09:33:45;;;;;;;11.63;10.97;;;16.00;51.70;;;;;;5116220;28;20532;-56
2022/04/12 09:36:12;;;;;;;11.13;10.53;;;16.20;51.90;;;;;;5115962;28;20532;-54
2022/04/12 09:38:41;;;;;;;11.83;11.13;;;16.20;49.60;;;;;;5116181;28;20536;-57
2022/04/12 09:41:18;;;;;;;11.60;10.90;;;16.40;51.20;;;;;;5116091;28;20451;-55
2022/04/12 09:43:56;;;;;;;11.57;10.80;;;16.60;50.00;;;;;;5114826;28;20441;-57
2022/04/12 09:46:24;;;;;;;12.10;11.33;;;16.70;50.40;;;;;;5115630;28;20490;-57
2022/04/12 09:48:52;;;;;;;10.50;9.80;;;16.90;49.60;;;;;;5116033;28;20528;-57
2022/04/12 09:51:22;;;;;;;10.07;9.50;;;17.00;48.10;;;;;;5115673;28;20562;-56
2022/04/12 09:53:49;;;;;;;10.17;9.67;;;17.10;48.60;;;;;;5116188;28;20452;-57
2022/04/12 09:56:20;;;;;;;10.97;10.37;;;17.20;48.40;;;;;;5115878;28;20541;-57
2022/04/12 09:58:48;;;;;;;10.83;10.13;;;17.40;47.90;;;;;;5114440;28;20813;-57
2022/04/12 10:01:17;;;;;;;9.67;9.17;;;17.60;48.40;;;;;;5115703;28;20467;-56
2022/04/12 10:03:50;;;;;;;11.60;10.97;;;17.80;46.00;;;;;;5115580;28;20817;-56
2022/04/12 10:06:20;;;;;;;11.40;10.70;;;17.90;46.70;;;;;;5115350;28;20527;-56
2022/04/12 10:08:51;;;;;;;10.13;9.53;;;18.00;45.30;;;;;;5115621;28;20454;-56
2022/04/12 10:11:20;;;;;;;10.53;10.03;;;18.00;45.90;;;;;;5115378;28;20445;-56
2022/04/12 10:13:48;;;;;;;10.70;10.10;;;18.00;44.60;;;;;;5113830;28;20455;-56
2022/04/12 10:16:16;;;;;;;10.70;10.10;;;18.00;45.10;;;;;;5115359;28;20952;-57
2022/04/12 10:18:44;;;;;;;9.47;8.87;;;18.10;45.10;;;;;;5115235;28;20445;-57
2022/04/12 10:21:12;;;;;;;10.87;10.17;;;18.20;45.40;;;;;;5115138;28;20445;-57
2022/04/12 10:23:42;;;;;;;11.00;10.20;;;18.30;44.60;;;;;;5115138;27;20464;-56
2022/04/12 10:26:10;;;;;;;9.60;9.00;;;18.50;46.30;;;;;;5115011;28;20495;-55
2022/04/12 10:28:39;;;;;;;9.30;8.70;;;18.70;43.80;;;;;;5114030;28;20446;-55
2022/04/12 10:31:24;;;;;;;11.10;10.40;;;18.80;46.60;;;;;;5115006;28;20453;-54
2022/04/12 10:34:05;;;;;;;10.70;9.97;;;19.00;42.80;;;;;;5115216;28;20452;-54
2022/04/12 10:36:56;;;;;;;9.30;8.70;;;19.00;43.10;;;;;;5114757;28;20540;-56
2022/04/12 10:39:29;;;;;;;11.30;10.47;;;19.10;43.70;;;;;;5106334;28;20510;-54
2022/04/12 10:41:57;;;;;;;10.00;9.40;;;19.20;44.40;;;;;;5114925;28;20445;-56
2022/04/12 10:44:25;;;;;;;10.77;10.27;;;19.40;42.60;;;;;;5113503;28;20540;-55
2022/04/12 10:46:53;;;;;;;9.77;9.10;;;19.40;43.50;;;;;;5114624;28;20489;-56
2022/04/12 10:49:21;;;;;;;11.00;10.30;;;19.50;43.20;;;;;;5114805;28;20455;-56
2022/04/12 10:51:56;;;;;;;11.00;10.40;;;19.50;41.90;;;;;;5114490;28;20533;-55
2022/04/12 10:54:31;;;;;;;11.17;10.27;;;19.60;41.90;;;;;;5114536;28;20451;-56
2022/04/12 10:57:24;;;;;;;10.40;9.80;;;19.60;42.00;;;;;;5114506;28;20485;-55
2022/04/12 10:59:53;;;;;;;8.70;8.10;;;19.80;42.50;;;;;;5113916;28;20449;-56
2022/04/12 11:02:21;;;;;;;8.70;8.20;;;20.00;42.20;;;;;;5114553;28;21011;-55
2022/04/12 11:04:48;;;;;;;8.90;8.40;;;20.30;42.00;;;;;;5114129;28;20438;-56
2022/04/12 11:07:35;;;;;;;11.03;10.37;;;20.40;39.60;;;;;;5114319;28;20497;-55
2022/04/12 11:10:26;;;;;;;9.40;8.90;;;20.30;39.60;;;;;;5114915;27;20523;-57
2022/04/12 11:13:06;;;;;;;11.63;10.83;;;20.20;38.30;;;;;;5097586;28;20445;-56
2022/04/12 11:15:35;;;;;;;10.80;10.20;;;20.20;41.20;;;;;;5114139;28;20441;-55
2022/04/12 11:18:07;;;;;;;10.70;10.00;;;20.40;42.80;;;;;;5114056;28;20460;-55
2022/04/12 11:20:35;;;;;;;9.00;8.37;;;20.90;39.00;;;;;;5113734;28;21000;-56
2022/04/12 11:23:08;;;;;;;10.00;9.47;;;21.30;38.80;;;;;;5114126;28;20445;-56
2022/04/12 11:25:36;;;;;;;10.60;10.00;;;21.50;39.10;;;;;;5113244;28;20551;-56
2022/04/12 11:28:03;;;;;;;10.17;9.67;;;21.90;40.40;;;;;;5112728;28;20449;-54
2022/04/12 11:30:30;;;;;;;9.40;8.80;;;22.30;38.80;;;;;;5113848;28;20446;-55
2022/04/12 11:32:59;;;;;;;11.07;10.27;;;22.30;38.10;;;;;;5113899;28;20450;-55
2022/04/12 11:35:26;;;;;;;10.43;9.93;;;22.30;39.50;;;;;;5113643;28;20489;-56
2022/04/12 11:37:53;;;;;;;10.67;10.07;;;22.50;37.10;;;;;;5114106;28;20913;-56
2022/04/12 11:40:20;;;;;;;10.87;10.27;;;22.60;39.90;;;;;;5113817;28;20453;-57
2022/04/12 11:42:47;;;;;;;10.80;10.20;;;22.80;39.60;;;;;;5112485;28;20485;-57
2022/04/12 11:45:14;;;;;;;11.07;10.57;;;22.90;36.00;;;;;;5113528;28;20507;-56
2022/04/12 11:47:44;;;;;;;11.63;10.83;;;22.80;37.70;;;;;;5113591;28;20500;-55
2022/04/12 11:50:19;;;;;;;10.37;9.87;;;22.80;36.40;;;;;;5113464;28;20528;-55
2022/04/12 11:52:47;;;;;;;10.50;10.00;;;22.70;37.20;;;;;;5113408;28;20459;-55
2022/04/12 11:55:14;;;;;;;10.70;10.00;;;22.50;38.60;;;;;;5113499;28;20295;-55
2022/04/12 11:57:41;;;;;;;10.33;9.77;;;22.60;38.80;;;;;;5112158;28;20843;-56
2022/04/12 12:00:09;;;;;;;9.10;8.40;;;22.70;38.50;;;;;;5113289;28;20473;-57
2022/04/12 12:02:38;;;;;;;10.37;9.77;;;22.80;38.80;;;;;;5113362;28;20437;-57
2022/04/12 12:05:08;;;;;;;10.83;10.33;;;22.90;39.20;;;;;;5113105;28;20465;-56
2022/04/12 12:07:37;;;;;;;10.60;10.10;;;22.80;38.00;;;;;;5113438;28;20459;-55
2022/04/12 12:10:06;;;;;;;8.93;8.30;;;22.90;38.70;;;;;;5113294;28;20454;-56
2022/04/12 12:12:34;;;;;;;10.27;9.77;;;23.00;38.90;;;;;;5111858;28;20452;-55
2022/04/12 12:15:15;;;;;;;10.13;9.63;;;23.10;38.90;;;;;;5113279;28;20451;-56
2022/04/12 12:17:44;;;;;;;10.77;10.23;;;23.30;38.80;;;;;;5113291;28;20449;-56
2022/04/12 12:20:11;;;;;;;8.70;8.10;;;23.40;38.40;;;;;;5112707;28;21007;-55
2022/04/12 12:22:41;;;;;;;9.10;8.60;;;23.30;38.30;;;;;;5113104;28;20464;-55
2022/04/12 12:25:10;;;;;;;10.20;9.70;;;23.40;39.10;;;;;;5112914;28;20445;-55
2022/04/12 12:27:38;;;;;;;10.88;10.38;;;23.30;38.80;;;;;;5112032;28;20518;-57
2022/04/12 12:30:07;;;;;;;10.47;9.97;;;23.40;39.20;;;;;;5113095;28;20286;-55
2022/04/12 12:32:35;;;;;;;11.20;10.60;;;23.50;38.80;;;;;;5113058;28;20900;-55
2022/04/12 12:35:06;;;;;;;9.83;9.10;;;23.40;38.00;;;;;;5113025;28;20952;-56
2022/04/12 12:37:33;;;;;;;9.67;9.07;;;23.30;38.20;;;;;;5116718;28;20445;-56
2022/04/12 12:40:02;;;;;;;9.30;8.80;;;23.20;39.00;;;;;;5117126;28;20452;-56